Time;durP1;ratioP1;P1;durP2;ratioP2;P2;SDS_P1;SDS_P2;PMS_P1;PMS_P2;Temp;Humidity;BMP_temperature;BMP_pressure;BME280_temperature;BME280_humidity;BME280_pressure;Samples;Min_cycle;Max_cycle;Signal;HPM_P1;HPM_P2
2022/04/17 00:00:29;;;;;;;0.00;0.00;;;8.40;75.10;;;;;;4970143;28;20023;-66
2022/04/17 00:02:56;;;;;;;0.00;0.00;;;8.40;75.10;;;;;;4969988;28;20038;-66
2022/04/17 00:05:21;;;;;;;0.40;0.40;;;8.60;75.00;;;;;;4974209;28;20434;-66
2022/04/17 00:07:47;;;;;;;0.00;0.00;;;8.70;74.40;;;;;;4974842;28;20039;-66
2022/04/17 00:10:16;;;;;;;0.10;0.10;;;8.60;74.50;;;;;;4973603;28;20106;-66
2022/04/17 00:12:43;;;;;;;0.20;0.20;;;8.60;74.30;;;;;;4973941;28;20118;-66
2022/04/17 00:15:10;;;;;;;0.00;0.00;;;8.60;74.00;;;;;;4974258;28;20410;-66
2022/04/17 00:17:42;;;;;;;0.10;0.10;;;8.60;74.10;;;;;;4973588;28;20062;-66
2022/04/17 00:20:18;;;;;;;0.00;0.00;;;8.60;74.60;;;;;;4975331;28;20038;-65
2022/04/17 00:22:44;;;;;;;0.10;0.10;;;8.60;74.00;;;;;;4973911;28;20035;-65
2022/04/17 00:25:12;;;;;;;0.00;0.00;;;8.60;74.30;;;;;;4973824;28;20023;-65
2022/04/17 00:27:41;;;;;;;0.20;0.20;;;8.60;74.20;;;;;;4974441;28;20023;-66
2022/04/17 00:30:08;;;;;;;0.10;0.10;;;8.50;74.60;;;;;;4973769;28;20065;-65
2022/04/17 00:32:35;;;;;;;0.00;0.00;;;8.50;74.70;;;;;;4974955;28;20039;-65
2022/04/17 00:35:02;;;;;;;0.00;0.00;;;8.40;74.80;;;;;;4957622;28;20035;-65
2022/04/17 00:37:28;;;;;;;0.10;0.10;;;8.40;75.00;;;;;;4973457;28;20478;-66
2022/04/17 00:39:53;;;;;;;0.10;0.10;;;8.40;75.60;;;;;;4974705;28;20062;-65
2022/04/17 00:42:19;;;;;;;0.00;0.00;;;8.30;75.60;;;;;;4973662;28;20117;-65
2022/04/17 00:44:45;;;;;;;0.00;0.00;;;8.20;76.10;;;;;;4974744;28;20077;-65
2022/04/17 00:47:15;;;;;;;0.00;0.00;;;8.20;76.10;;;;;;4973281;28;20023;-66
2022/04/17 00:49:50;;;;;;;0.10;0.10;;;8.10;76.40;;;;;;4974797;28;20061;-66
2022/04/17 00:52:17;;;;;;;0.00;0.00;;;8.00;77.00;;;;;;4974637;28;20042;-66
2022/04/17 00:54:46;;;;;;;0.00;0.00;;;8.00;77.20;;;;;;4973301;28;20035;-66
2022/04/17 00:57:16;;;;;;;0.00;0.00;;;7.90;77.50;;;;;;4972847;28;20038;-68
2022/04/17 00:59:44;;;;;;;0.00;0.00;;;7.90;77.70;;;;;;4974680;28;20054;-66
2022/04/17 01:02:10;;;;;;;0.30;0.30;;;7.90;78.00;;;;;;4973061;28;20031;-65
2022/04/17 01:04:37;;;;;;;0.05;0.05;;;7.80;78.40;;;;;;4968886;28;20073;-66
2022/04/17 01:07:04;;;;;;;0.00;0.00;;;7.80;78.90;;;;;;4954422;28;20050;-65
2022/04/17 01:09:30;;;;;;;0.00;0.00;;;7.70;79.30;;;;;;4980702;28;20055;-65
2022/04/17 01:11:57;;;;;;;0.10;0.10;;;7.70;79.40;;;;;;4968271;28;20489;-66
2022/04/17 01:14:27;;;;;;;0.10;0.10;;;7.60;80.00;;;;;;4973818;28;20038;-66
2022/04/17 01:16:53;;;;;;;0.10;0.10;;;7.50;80.50;;;;;;4969276;28;20043;-65
2022/04/17 01:19:19;;;;;;;1.33;0.70;;;7.50;81.10;;;;;;4969207;28;20043;-66
2022/04/17 01:21:49;;;;;;;0.05;0.05;;;7.50;81.10;;;;;;4954596;28;20027;-66
2022/04/17 01:27:03;;;;;;;0.00;0.00;;;7.40;81.70;;;;;;4986377;28;20038;-66
2022/04/17 01:29:40;;;;;;;0.00;0.00;;;7.40;82.00;;;;;;4988505;28;20483;-66
2022/04/17 01:32:10;;;;;;;3.15;0.82;;;7.40;82.90;;;;;;4988670;28;20066;-66
2022/04/17 01:34:37;;;;;;;0.00;0.00;;;7.30;83.30;;;;;;4988545;28;20053;-65
2022/04/17 01:37:04;;;;;;;0.00;0.00;;;7.20;83.00;;;;;;4988259;28;20130;-65
2022/04/17 01:39:31;;;;;;;0.00;0.00;;;7.20;83.70;;;;;;4988691;28;20604;-65
2022/04/17 01:41:59;;;;;;;0.10;0.10;;;7.20;83.70;;;;;;4958981;28;20091;-65
2022/04/17 01:44:28;;;;;;;0.10;0.10;;;7.20;83.30;;;;;;4969266;28;20035;-65
2022/04/17 01:46:56;;;;;;;0.10;0.10;;;7.20;83.60;;;;;;4954005;28;20537;-65
2022/04/17 01:49:23;;;;;;;0.00;0.00;;;7.30;83.60;;;;;;4969059;28;20038;-65
2022/04/17 01:51:52;;;;;;;0.10;0.10;;;7.40;83.10;;;;;;4969072;28;20027;-65
2022/04/17 01:54:19;;;;;;;2.38;0.40;;;7.20;85.00;;;;;;4968516;28;20550;-65
2022/04/17 01:56:49;;;;;;;1.10;1.00;;;6.90;86.70;;;;;;4953629;28;20078;-64
2022/04/17 01:59:17;;;;;;;0.10;0.10;;;7.00;86.40;;;;;;4968311;28;20078;-65
2022/04/17 02:01:44;;;;;;;0.10;0.10;;;7.00;85.00;;;;;;4953711;29;20051;-65
2022/04/17 02:04:13;;;;;;;0.00;0.00;;;7.10;85.00;;;;;;4968912;28;20047;-65
2022/04/17 02:06:40;;;;;;;0.08;0.08;;;7.10;85.00;;;;;;4968350;28;20031;-64
2022/04/17 02:09:08;;;;;;;0.50;0.50;;;7.10;85.50;;;;;;4953549;28;20443;-64
2022/04/17 02:11:34;;;;;;;0.00;0.00;;;7.00;85.90;;;;;;4968706;28;20039;-65
2022/04/17 02:14:00;;;;;;;0.00;0.00;;;7.00;86.00;;;;;;4968788;28;20066;-65
2022/04/17 02:16:26;;;;;;;0.00;0.00;;;6.80;87.20;;;;;;4970609;28;20130;-65
2022/04/17 02:18:53;;;;;;;0.00;0.00;;;6.90;86.60;;;;;;4971504;28;20066;-65
2022/04/17 02:21:19;;;;;;;0.00;0.00;;;6.90;86.10;;;;;;4972796;28;20066;-65
2022/04/17 02:23:45;;;;;;;0.00;0.00;;;6.90;86.60;;;;;;4972350;28;20106;-65
2022/04/17 02:26:16;;;;;;;0.10;0.10;;;6.90;87.00;;;;;;4972140;28;20037;-65
2022/04/17 02:28:42;;;;;;;0.10;0.10;;;6.90;87.10;;;;;;4987291;28;20023;-66
2022/04/17 02:31:09;;;;;;;0.03;0.03;;;6.80;86.80;;;;;;4988040;28;20027;-66
2022/04/17 02:33:36;;;;;;;0.15;0.15;;;6.90;86.90;;;;;;4987593;28;20034;-66
2022/04/17 02:36:02;;;;;;;1.13;1.10;;;6.90;87.60;;;;;;4987551;28;20031;-66
2022/04/17 02:38:27;;;;;;;0.00;0.00;;;6.90;87.30;;;;;;4987612;28;20035;-65
2022/04/17 02:40:54;;;;;;;0.20;0.20;;;6.90;87.30;;;;;;4972268;28;20646;-65
2022/04/17 02:43:21;;;;;;;0.52;0.52;;;6.90;87.10;;;;;;4972501;28;20035;-66
2022/04/17 02:45:47;;;;;;;0.00;0.00;;;6.90;87.60;;;;;;4987338;28;20029;-65
2022/04/17 02:48:13;;;;;;;0.20;0.20;;;6.90;87.60;;;;;;4971809;28;20037;-65
2022/04/17 02:50:39;;;;;;;0.00;0.00;;;6.90;87.10;;;;;;4987080;28;20027;-65
2022/04/17 02:53:06;;;;;;;0.20;0.20;;;6.90;87.60;;;;;;4987431;28;20626;-65
2022/04/17 02:55:32;;;;;;;0.10;0.10;;;6.90;87.70;;;;;;4987355;28;20045;-65
2022/04/17 02:57:57;;;;;;;0.08;0.08;;;6.90;88.30;;;;;;4971831;28;20489;-65
2022/04/17 03:00:26;;;;;;;0.00;0.00;;;6.90;87.90;;;;;;4971289;28;20039;-65
2022/04/17 03:05:37;;;;;;;0.00;0.00;;;6.90;88.00;;;;;;4984867;28;20030;-66
2022/04/17 03:08:10;;;;;;;0.00;0.00;;;6.80;88.90;;;;;;4986637;28;20113;-66
2022/04/17 03:10:48;;;;;;;0.10;0.10;;;6.90;88.50;;;;;;4971672;28;20533;-66
2022/04/17 03:13:14;;;;;;;0.05;0.05;;;6.90;88.40;;;;;;4971839;28;20074;-65
2022/04/17 03:15:40;;;;;;;0.00;0.00;;;6.90;88.80;;;;;;4960804;28;20031;-65
2022/04/17 03:18:08;;;;;;;0.00;0.00;;;6.80;90.10;;;;;;4967089;28;20039;-65
2022/04/17 03:20:35;;;;;;;0.03;0.03;;;6.90;89.70;;;;;;4967350;28;20043;-66
2022/04/17 03:23:02;;;;;;;0.00;0.00;;;6.80;90.10;;;;;;4967134;28;20038;-65
2022/04/17 03:25:29;;;;;;;0.10;0.10;;;6.80;90.10;;;;;;4967405;28;20627;-65
2022/04/17 03:27:57;;;;;;;0.30;0.30;;;6.80;90.60;;;;;;4967160;28;20027;-65
2022/04/17 03:30:23;;;;;;;0.10;0.10;;;6.50;91.20;;;;;;4967260;28;20641;-65
2022/04/17 03:32:50;;;;;;;0.00;0.00;;;6.40;91.70;;;;;;4952385;28;20043;-66
2022/04/17 03:35:18;;;;;;;0.00;0.00;;;6.30;92.20;;;;;;4967116;28;20422;-66
2022/04/17 03:37:51;;;;;;;0.00;0.00;;;6.30;92.30;;;;;;4966587;28;20046;-66
2022/04/17 03:40:16;;;;;;;0.30;0.30;;;6.30;92.20;;;;;;4950701;28;20423;-66
2022/04/17 03:42:43;;;;;;;0.00;0.00;;;6.30;92.20;;;;;;4967176;28;20046;-65
2022/04/17 03:45:11;;;;;;;1.45;1.35;;;6.30;92.20;;;;;;4950999;28;20027;-65
2022/04/17 03:47:38;;;;;;;0.03;0.03;;;6.40;92.20;;;;;;4952133;29;20089;-66
2022/04/17 03:50:05;;;;;;;1.77;0.70;;;6.50;92.00;;;;;;4951889;28;20031;-66
2022/04/17 03:52:45;;;;;;;0.00;0.00;;;6.40;92.30;;;;;;4967051;28;20039;-66
2022/04/17 03:55:12;;;;;;;0.00;0.00;;;6.30;92.40;;;;;;4952289;28;20031;-66
2022/04/17 03:57:38;;;;;;;0.08;0.08;;;6.30;92.60;;;;;;4952153;29;20621;-66
2022/04/17 04:00:07;;;;;;;0.10;0.10;;;6.30;92.80;;;;;;4951817;29;20094;-66
2022/04/17 04:02:33;;;;;;;0.28;0.28;;;6.30;92.80;;;;;;4951997;28;20035;-66
2022/04/17 04:04:59;;;;;;;0.22;0.22;;;6.30;92.90;;;;;;4951869;29;20087;-66
2022/04/17 04:07:25;;;;;;;0.00;0.00;;;6.30;92.90;;;;;;4952224;29;20027;-66
2022/04/17 04:09:52;;;;;;;0.30;0.30;;;6.30;92.80;;;;;;4966892;28;20038;-66
2022/04/17 04:12:19;;;;;;;0.10;0.10;;;6.30;93.00;;;;;;4952388;29;20034;-66
2022/04/17 04:14:44;;;;;;;0.00;0.00;;;6.30;93.10;;;;;;4965878;28;20041;-66
2022/04/17 04:17:10;;;;;;;0.00;0.00;;;6.30;93.10;;;;;;4951315;29;20023;-66
2022/04/17 04:19:36;;;;;;;0.30;0.30;;;6.40;93.10;;;;;;4960273;28;20036;-65
2022/04/17 04:22:03;;;;;;;0.10;0.10;;;6.30;93.30;;;;;;4951620;28;20422;-65
2022/04/17 04:24:30;;;;;;;0.17;0.17;;;6.20;93.20;;;;;;4966441;28;20027;-65
2022/04/17 04:29:40;;;;;;;0.10;0.10;;;6.10;93.80;;;;;;4950836;29;20119;-65
2022/04/17 04:32:07;;;;;;;0.43;0.43;;;6.00;94.80;;;;;;4934761;29;20446;-65
2022/04/17 04:34:33;;;;;;;0.10;0.10;;;5.80;95.90;;;;;;4951833;29;20042;-65
2022/04/17 04:37:00;;;;;;;0.35;0.35;;;5.80;96.00;;;;;;4966606;28;20031;-65
2022/04/17 04:39:27;;;;;;;0.03;0.03;;;5.70;96.00;;;;;;4951765;29;20475;-66
2022/04/17 04:41:53;;;;;;;0.10;0.10;;;5.70;96.20;;;;;;4951682;29;20224;-66
2022/04/17 04:44:18;;;;;;;0.10;0.10;;;5.70;96.00;;;;;;4951773;28;20122;-66
2022/04/17 04:46:44;;;;;;;0.10;0.10;;;5.60;96.30;;;;;;4951800;29;20023;-66
2022/04/17 04:51:54;;;;;;;0.10;0.10;;;5.70;96.40;;;;;;4955753;29;20039;-66
2022/04/17 04:54:20;;;;;;;0.00;0.00;;;5.70;96.50;;;;;;4955586;29;20041;-64
2022/04/17 04:56:45;;;;;;;0.08;0.08;;;5.80;96.70;;;;;;4954935;29;20125;-66
2022/04/17 04:59:11;;;;;;;0.55;0.55;;;5.70;96.60;;;;;;4955041;28;20039;-66
2022/04/17 05:01:37;;;;;;;0.10;0.10;;;5.70;96.70;;;;;;4954939;29;20027;-66
2022/04/17 05:04:03;;;;;;;0.00;0.00;;;5.80;96.80;;;;;;4955211;29;20043;-66
2022/04/17 05:06:28;;;;;;;0.22;0.22;;;5.70;96.80;;;;;;4955072;29;20023;-66
2022/04/17 05:08:54;;;;;;;0.00;0.00;;;5.70;97.00;;;;;;4969762;28;20055;-64
2022/04/17 05:11:20;;;;;;;0.10;0.10;;;5.70;97.10;;;;;;4969940;28;20039;-65
2022/04/17 05:13:46;;;;;;;0.25;0.25;;;5.70;97.40;;;;;;4955205;28;20038;-67
2022/04/17 05:16:13;;;;;;;0.00;0.00;;;5.70;97.40;;;;;;4969911;28;20069;-65
2022/04/17 05:18:40;;;;;;;0.00;0.00;;;5.70;97.50;;;;;;4974394;28;20121;-65
2022/04/17 05:21:06;;;;;;;0.20;0.20;;;5.80;97.40;;;;;;4988770;28;20031;-65
2022/04/17 05:23:32;;;;;;;0.10;0.10;;;5.80;97.30;;;;;;4989175;28;20403;-65
2022/04/17 05:26:03;;;;;;;0.00;0.00;;;5.90;97.40;;;;;;4988463;28;20125;-65
2022/04/17 05:28:29;;;;;;;0.10;0.10;;;5.80;97.40;;;;;;4973778;28;20042;-66
2022/04/17 05:30:57;;;;;;;0.95;0.95;;;5.90;97.40;;;;;;4973703;28;20058;-66
2022/04/17 05:33:23;;;;;;;0.00;0.00;;;5.90;97.30;;;;;;4973989;28;20035;-66
2022/04/17 05:35:51;;;;;;;0.10;0.10;;;5.90;97.40;;;;;;4973656;28;20027;-66
2022/04/17 05:38:17;;;;;;;0.00;0.00;;;5.90;97.60;;;;;;4988083;28;20027;-67
2022/04/17 05:40:49;;;;;;;0.00;0.00;;;5.90;97.50;;;;;;4970176;28;20459;-67
2022/04/17 05:43:16;;;;;;;0.13;0.13;;;6.00;97.50;;;;;;4954059;28;20063;-65
2022/04/17 05:45:42;;;;;;;0.10;0.10;;;6.10;97.10;;;;;;4954306;28;20034;-73
2022/04/17 05:48:09;;;;;;;0.00;0.00;;;6.10;97.00;;;;;;4968484;28;20396;-65
2022/04/17 05:50:36;;;;;;;0.05;0.05;;;6.20;97.00;;;;;;4965781;28;20023;-66
2022/04/17 05:53:03;;;;;;;0.00;0.00;;;6.30;96.90;;;;;;4953441;28;20031;-65
2022/04/17 05:55:29;;;;;;;0.00;0.00;;;6.30;96.50;;;;;;4953593;29;20472;-65
2022/04/17 05:57:54;;;;;;;0.20;0.20;;;6.40;96.50;;;;;;4968354;28;20086;-64
2022/04/17 06:00:21;;;;;;;0.93;0.93;;;6.50;96.10;;;;;;4967964;28;20039;-64
2022/04/17 06:02:48;;;;;;;0.10;0.10;;;6.60;95.90;;;;;;4953027;28;20027;-66
2022/04/17 06:05:17;;;;;;;0.00;0.00;;;6.70;95.60;;;;;;4952659;29;20043;-66
2022/04/17 06:07:44;;;;;;;0.30;0.30;;;6.80;95.50;;;;;;4952258;29;20030;-69
2022/04/17 06:10:13;;;;;;;0.10;0.10;;;6.90;95.40;;;;;;4952330;29;20032;-65
2022/04/17 06:12:40;;;;;;;0.10;0.10;;;7.00;95.00;;;;;;4953526;28;20522;-66
2022/04/17 06:15:08;;;;;;;0.20;0.20;;;7.10;95.10;;;;;;4953362;28;20058;-66
2022/04/17 06:17:38;;;;;;;0.10;0.10;;;7.10;94.70;;;;;;4952207;29;20035;-66
2022/04/17 06:20:10;;;;;;;0.10;0.10;;;7.20;94.50;;;;;;4962848;28;20138;-65
2022/04/17 06:22:36;;;;;;;0.10;0.10;;;7.30;94.40;;;;;;4972576;28;20483;-69
2022/04/17 06:25:05;;;;;;;0.05;0.05;;;7.40;94.30;;;;;;4987136;28;20027;-66
2022/04/17 06:27:46;;;;;;;0.30;0.30;;;7.50;93.90;;;;;;4987250;28;20031;-65
2022/04/17 06:30:15;;;;;;;0.00;0.00;;;7.60;93.40;;;;;;4987199;28;20388;-65
2022/04/17 06:32:42;;;;;;;0.08;0.08;;;7.70;93.00;;;;;;4987582;28;20045;-67
2022/04/17 06:35:10;;;;;;;0.00;0.00;;;7.80;93.30;;;;;;4987096;28;20034;-67
2022/04/17 06:38:06;;;;;;;0.45;0.45;;;7.90;93.10;;;;;;4986934;28;20109;-68
2022/04/17 06:40:34;;;;;;;0.00;0.00;;;8.00;92.80;;;;;;4967343;28;20133;-68
2022/04/17 06:43:07;;;;;;;0.45;0.45;;;8.10;92.40;;;;;;4986969;28;20035;-65
2022/04/17 06:45:39;;;;;;;0.22;0.22;;;8.20;92.30;;;;;;4972434;28;20034;-65
2022/04/17 06:48:31;;;;;;;0.20;0.20;;;8.20;92.10;;;;;;4986665;28;20027;-66
2022/04/17 06:50:57;;;;;;;0.30;0.30;;;8.30;92.10;;;;;;4969634;28;20077;-66
2022/04/17 06:53:23;;;;;;;0.20;0.20;;;8.30;91.90;;;;;;4972230;28;20362;-65
2022/04/17 06:55:49;;;;;;;0.00;0.00;;;8.40;92.00;;;;;;4987058;28;20054;-66
2022/04/17 06:58:17;;;;;;;0.03;0.03;;;8.50;91.90;;;;;;4981008;28;20045;-66
2022/04/17 07:00:43;;;;;;;2.10;1.90;;;8.60;91.60;;;;;;4971828;28;20030;-64
2022/04/17 07:03:09;;;;;;;1.23;1.15;;;8.70;91.20;;;;;;4986594;28;20054;-64
2022/04/17 07:05:34;;;;;;;1.67;1.58;;;8.70;91.50;;;;;;4980679;28;20031;-65
2022/04/17 07:08:06;;;;;;;1.80;0.90;;;8.80;93.60;;;;;;4958009;28;20047;-65
2022/04/17 07:10:33;;;;;;;;;;;9.00;91.30;;;;;;4969435;28;20033;-65
2022/04/17 07:12:59;;;;;;;0.05;0.05;;;9.10;91.40;;;;;;4964860;28;19924;-65
2022/04/17 07:15:25;;;;;;;1.30;1.20;;;9.30;91.70;;;;;;4970089;28;20070;-65
2022/04/17 07:17:53;;;;;;;0.00;0.00;;;9.30;90.50;;;;;;4952377;29;20094;-64
2022/04/17 07:20:20;;;;;;;0.00;0.00;;;9.30;90.90;;;;;;4967242;28;20023;-65
2022/04/17 07:22:47;;;;;;;0.28;0.25;;;9.20;90.30;;;;;;4951470;29;20059;-66
2022/04/17 07:25:14;;;;;;;0.00;0.00;;;9.30;90.10;;;;;;4967215;28;20034;-67
2022/04/17 07:27:43;;;;;;;0.00;0.00;;;9.40;90.20;;;;;;4950908;29;20027;-66
2022/04/17 07:30:12;;;;;;;0.00;0.00;;;9.40;90.10;;;;;;4952519;28;20057;-65
2022/04/17 07:32:40;;;;;;;0.63;0.63;;;9.50;90.00;;;;;;4951116;28;20030;-69
2022/04/17 07:35:07;;;;;;;8.07;0.80;;;9.90;95.60;;;;;;4951014;28;20031;-67
2022/04/17 07:37:35;;;;;;;0.40;0.40;;;10.20;92.30;;;;;;4952479;28;20031;-68
2022/04/17 07:40:13;;;;;;;0.10;0.10;;;10.30;92.40;;;;;;4952098;28;20082;-68
2022/04/17 07:42:38;;;;;;;0.15;0.15;;;10.10;87.80;;;;;;4951166;29;20086;-68
2022/04/17 07:45:05;;;;;;;4.22;1.98;;;10.30;89.50;;;;;;4952324;28;20035;-67
2022/04/17 07:47:31;;;;;;;1.23;1.13;;;10.10;88.90;;;;;;4951419;28;20058;-70
2022/04/17 07:49:56;;;;;;;0.30;0.30;;;10.20;87.60;;;;;;4960874;28;20058;-64
2022/04/17 07:52:23;;;;;;;0.10;0.10;;;10.00;87.50;;;;;;4986308;28;20030;-64
2022/04/17 07:54:50;;;;;;;0.03;0.03;;;10.00;88.40;;;;;;4971488;28;20035;-62
2022/04/17 07:57:15;;;;;;;0.75;0.75;;;10.30;89.50;;;;;;4954775;28;20443;-61
2022/04/17 07:59:41;;;;;;;0.63;0.63;;;10.50;89.60;;;;;;4951623;28;20027;-63
2022/04/17 08:02:28;;;;;;;0.10;0.10;;;10.60;86.20;;;;;;4951789;29;20461;-62
2022/04/17 08:04:55;;;;;;;0.00;0.00;;;11.00;84.50;;;;;;4950838;29;20456;-62
2022/04/17 08:07:22;;;;;;;0.00;0.00;;;11.00;82.20;;;;;;4966775;28;20042;-61
2022/04/17 08:09:47;;;;;;;0.38;0.38;;;11.00;81.70;;;;;;4951783;29;20063;-62
2022/04/17 08:12:13;;;;;;;0.00;0.00;;;11.10;81.10;;;;;;4951806;28;20039;-62
2022/04/17 08:14:39;;;;;;;0.00;0.00;;;11.20;80.80;;;;;;4951957;29;20131;-63
2022/04/17 08:17:05;;;;;;;0.20;0.20;;;11.20;79.50;;;;;;4951682;28;20118;-61
2022/04/17 08:19:32;;;;;;;0.00;0.00;;;11.10;79.20;;;;;;4957467;28;20026;-64
2022/04/17 08:22:02;;;;;;;0.00;0.00;;;11.10;79.10;;;;;;4971284;28;20038;-67
2022/04/17 08:24:30;;;;;;;0.00;0.00;;;11.30;80.90;;;;;;4987163;28;20023;-64
2022/04/17 08:26:59;;;;;;;0.08;0.08;;;11.30;77.90;;;;;;4989006;28;20018;-63
2022/04/17 08:29:25;;;;;;;0.00;0.00;;;11.30;79.30;;;;;;4975323;28;20027;-64
2022/04/17 08:31:51;;;;;;;6.13;0.47;;;11.30;78.20;;;;;;4975162;28;20034;-63
2022/04/17 08:34:16;;;;;;;0.00;0.00;;;11.30;77.50;;;;;;4989907;28;20037;-62
2022/04/17 08:36:42;;;;;;;0.05;0.05;;;11.30;77.00;;;;;;4973169;28;20513;-63
2022/04/17 08:39:08;;;;;;;0.00;0.00;;;11.60;79.20;;;;;;4989640;28;20034;-63
2022/04/17 08:41:34;;;;;;;0.10;0.10;;;11.60;78.40;;;;;;4974381;28;20037;-63
2022/04/17 08:44:00;;;;;;;0.00;0.00;;;11.80;77.20;;;;;;4974914;28;20038;-62
2022/04/17 08:46:26;;;;;;;1.27;1.17;;;11.80;76.50;;;;;;4989299;28;20360;-62
2022/04/17 08:48:53;;;;;;;1.00;0.95;;;12.00;76.70;;;;;;4974073;28;20035;-64
2022/04/17 08:51:21;;;;;;;0.20;0.20;;;12.20;76.50;;;;;;4989595;28;20027;-63
2022/04/17 08:53:48;;;;;;;1.40;1.20;;;12.40;80.30;;;;;;4974559;28;20030;-65
2022/04/17 08:56:14;;;;;;;0.90;0.43;;;12.60;77.40;;;;;;4989080;28;20382;-62
2022/04/17 08:58:40;;;;;;;0.00;0.00;;;12.40;75.50;;;;;;4976087;28;20038;-69
2022/04/17 09:01:06;;;;;;;0.00;0.00;;;12.20;73.80;;;;;;4953364;28;20103;-69
2022/04/17 09:03:32;;;;;;;0.00;0.00;;;12.30;75.00;;;;;;4953598;29;20035;-70
2022/04/17 09:05:58;;;;;;;0.00;0.00;;;12.50;76.40;;;;;;4954534;29;20038;-70
2022/04/17 09:08:24;;;;;;;0.15;0.15;;;12.50;74.20;;;;;;4968953;28;20066;-70
2022/04/17 09:10:56;;;;;;;0.00;0.00;;;12.60;73.20;;;;;;4956221;28;20440;-69
2022/04/17 09:13:34;;;;;;;0.00;0.00;;;12.70;73.40;;;;;;4972513;28;20057;-73
2022/04/17 09:16:04;;;;;;;0.00;0.00;;;12.90;72.50;;;;;;4954084;29;20118;-70
2022/04/17 09:18:33;;;;;;;0.00;0.00;;;13.00;74.40;;;;;;4969165;28;20121;-74
2022/04/17 09:21:01;;;;;;;0.00;0.00;;;13.20;71.00;;;;;;4971149;28;20035;-70
2022/04/17 09:23:36;;;;;;;0.10;0.10;;;13.50;70.80;;;;;;4988085;28;20047;-71
2022/04/17 09:26:04;;;;;;;0.10;0.10;;;13.60;70.70;;;;;;4988170;28;20479;-71
2022/04/17 09:28:36;;;;;;;0.00;0.00;;;13.60;69.20;;;;;;4973015;28;20541;-71
2022/04/17 09:31:12;;;;;;;0.00;0.00;;;13.80;69.10;;;;;;4988661;28;20461;-70
2022/04/17 09:33:42;;;;;;;0.03;0.03;;;13.90;69.90;;;;;;4988076;28;20514;-69
2022/04/17 09:36:12;;;;;;;0.60;0.45;;;13.90;69.30;;;;;;4973185;28;20070;-69
2022/04/17 09:38:38;;;;;;;0.00;0.00;;;14.10;69.40;;;;;;4973321;28;20602;-68
2022/04/17 09:41:13;;;;;;;0.22;0.22;;;14.20;68.90;;;;;;4960580;28;20047;-70
2022/04/17 09:43:39;;;;;;;0.00;0.00;;;14.30;69.00;;;;;;4953722;28;20038;-69
2022/04/17 09:46:09;;;;;;;0.20;0.20;;;14.30;67.40;;;;;;4969001;28;20023;-69
2022/04/17 09:48:40;;;;;;;0.00;0.00;;;14.40;67.80;;;;;;4968368;28;20094;-69
2022/04/17 09:51:38;;;;;;;0.00;0.00;;;14.40;68.70;;;;;;4986316;28;20019;-69
2022/04/17 09:54:06;;;;;;;0.00;0.00;;;14.40;66.20;;;;;;4947239;29;20087;-69
2022/04/17 09:56:35;;;;;;;1.08;0.75;;;14.50;68.90;;;;;;4968172;28;20107;-73
2022/04/17 09:59:24;;;;;;;0.00;0.00;;;14.50;67.50;;;;;;4953349;29;20468;-73
2022/04/17 10:01:52;;;;;;;0.45;0.45;;;14.70;66.30;;;;;;4953685;28;20039;-73
2022/04/17 10:04:20;;;;;;;0.00;0.00;;;15.00;69.00;;;;;;4968129;28;20027;-73
2022/04/17 10:06:51;;;;;;;0.60;0.60;;;15.20;67.10;;;;;;4953311;29;20023;-73
2022/04/17 10:09:18;;;;;;;0.43;0.32;;;15.30;66.70;;;;;;4968070;28;20475;-73
2022/04/17 10:11:45;;;;;;;0.05;0.05;;;15.30;66.70;;;;;;4953504;29;20035;-74
2022/04/17 10:14:11;;;;;;;5.00;0.95;;;15.40;63.00;;;;;;4968298;28;20055;-73
2022/04/17 10:16:42;;;;;;;0.10;0.10;;;15.30;64.00;;;;;;4953171;29;20085;-73
2022/04/17 10:19:18;;;;;;;0.15;0.15;;;15.00;63.30;;;;;;4953911;28;20047;-71
2022/04/17 10:21:46;;;;;;;0.17;0.17;;;15.30;66.70;;;;;;4971064;28;20081;-72
2022/04/17 10:24:18;;;;;;;0.00;0.00;;;15.10;64.10;;;;;;4972592;28;20041;-70
2022/04/17 10:26:54;;;;;;;0.10;0.10;;;15.50;65.70;;;;;;4972177;28;20235;-71
2022/04/17 10:29:42;;;;;;;0.00;0.00;;;15.80;65.50;;;;;;4987381;28;20534;-72
2022/04/17 10:33:08;;;;;;;0.10;0.10;;;16.10;63.60;;;;;;4972442;28;20042;-73
2022/04/17 10:36:14;;;;;;;0.00;0.00;;;15.90;61.90;;;;;;4956650;28;20076;-70
2022/04/17 10:39:30;;;;;;;0.00;0.00;;;15.90;62.30;;;;;;4985219;28;20034;-70
2022/04/17 10:41:58;;;;;;;0.00;0.00;;;15.80;62.90;;;;;;4933868;29;20114;-75
2022/04/17 10:44:29;;;;;;;0.65;0.63;;;15.60;61.70;;;;;;4933082;29;20165;-72
2022/04/17 10:46:56;;;;;;;0.00;0.00;;;15.60;63.20;;;;;;4933384;29;20036;-72
2022/04/17 10:49:27;;;;;;;0.20;0.20;;;15.50;65.10;;;;;;4936970;28;20023;-72
2022/04/17 10:51:54;;;;;;;;;;;16.00;63.40;;;;;;4952361;28;20090;-69
2022/04/17 10:54:20;;;;;;;0.00;0.00;;;16.50;62.80;;;;;;4953453;29;19910;-71
2022/04/17 10:56:55;;;;;;;0.00;0.00;;;16.80;61.50;;;;;;4953147;28;20054;-73
2022/04/17 10:59:33;;;;;;;0.00;0.00;;;17.10;59.30;;;;;;4952902;29;20035;-68
2022/04/17 11:02:10;;;;;;;0.20;0.20;;;16.80;59.40;;;;;;4952933;28;20122;-70
2022/04/17 11:04:54;;;;;;;0.00;0.00;;;16.80;60.40;;;;;;4952979;28;20078;-69
2022/04/17 11:07:32;;;;;;;0.28;0.28;;;16.50;58.40;;;;;;4951392;29;20039;-68
2022/04/17 11:10:15;;;;;;;0.05;0.05;;;17.00;59.20;;;;;;4951380;29;20093;-67
2022/04/17 11:12:53;;;;;;;0.45;0.45;;;17.40;56.70;;;;;;4952874;29;20039;-68
2022/04/17 11:15:18;;;;;;;0.00;0.00;;;17.60;56.60;;;;;;4951597;29;20058;-69
2022/04/17 11:17:48;;;;;;;0.00;0.00;;;17.60;56.00;;;;;;4952845;29;20063;-69
2022/04/17 11:20:15;;;;;;;0.05;0.05;;;17.40;57.00;;;;;;4962511;28;20035;-70
2022/04/17 11:22:41;;;;;;;0.00;0.00;;;17.90;57.80;;;;;;4986671;28;20030;-70
2022/04/17 11:25:09;;;;;;;0.00;0.00;;;17.50;59.20;;;;;;4971777;28;20147;-69
2022/04/17 11:27:52;;;;;;;0.00;0.00;;;17.60;54.90;;;;;;4986428;28;20479;-69
2022/04/17 11:30:17;;;;;;;0.08;0.08;;;17.60;55.80;;;;;;4971908;28;20651;-69
2022/04/17 11:32:43;;;;;;;0.00;0.00;;;17.70;55.80;;;;;;4971725;28;20133;-71
2022/04/17 11:35:21;;;;;;;0.00;0.00;;;18.00;56.40;;;;;;4971332;28;20122;-69
2022/04/17 11:37:53;;;;;;;3.40;0.28;;;18.20;54.60;;;;;;4986357;28;20031;-69
2022/04/17 11:40:20;;;;;;;0.00;0.00;;;18.20;53.70;;;;;;4966073;28;20484;-68
2022/04/17 11:42:52;;;;;;;0.00;0.00;;;18.00;52.20;;;;;;4948260;29;20052;-69
2022/04/17 11:45:27;;;;;;;0.22;0.15;;;18.50;51.40;;;;;;4950974;28;20027;-70
2022/04/17 11:47:56;;;;;;;0.00;0.00;;;18.70;51.10;;;;;;4966641;28;20446;-69
2022/04/17 11:50:23;;;;;;;0.90;0.17;;;19.00;52.70;;;;;;4978577;28;20023;-69
2022/04/17 11:52:50;;;;;;;0.10;0.10;;;18.50;50.30;;;;;;4971955;28;20046;-72
2022/04/17 11:55:22;;;;;;;0.20;0.20;;;18.70;51.90;;;;;;4986422;28;20058;-60
2022/04/17 11:57:48;;;;;;;0.00;0.00;;;19.10;52.30;;;;;;4985681;28;20027;-63
2022/04/17 12:00:14;;;;;;;0.45;0.17;;;19.10;51.10;;;;;;4972462;28;20082;-60
2022/04/17 12:02:39;;;;;;;0.50;0.20;;;19.00;51.90;;;;;;4990241;28;20399;-61
2022/04/17 12:05:12;;;;;;;0.00;0.00;;;19.60;50.50;;;;;;4990859;28;20486;-62
2022/04/17 12:07:38;;;;;;;0.00;0.00;;;18.80;50.60;;;;;;4963494;28;20031;-63
2022/04/17 12:10:14;;;;;;;0.00;0.00;;;19.10;51.30;;;;;;4952940;29;20047;-62
2022/04/17 12:12:45;;;;;;;0.00;0.00;;;19.00;50.60;;;;;;4970563;28;20028;-62
2022/04/17 12:15:13;;;;;;;0.00;0.00;;;19.10;49.70;;;;;;4970720;28;20395;-62
2022/04/17 12:17:39;;;;;;;0.00;0.00;;;19.40;51.10;;;;;;4955466;28;20043;-62
2022/04/17 12:20:09;;;;;;;0.10;0.10;;;19.40;51.70;;;;;;4970758;28;20042;-64
2022/04/17 12:22:37;;;;;;;0.00;0.00;;;19.00;51.10;;;;;;4952205;28;20071;-62
2022/04/17 12:25:23;;;;;;;0.05;0.05;;;19.30;50.20;;;;;;4951112;29;20031;-63
2022/04/17 12:27:50;;;;;;;0.38;0.35;;;18.60;49.60;;;;;;4952811;29;20423;-63
2022/04/17 12:30:26;;;;;;;0.32;0.25;;;19.50;51.50;;;;;;4947438;28;20027;-62
2022/04/17 12:32:59;;;;;;;0.05;0.05;;;20.00;52.70;;;;;;4954293;29;20054;-63
2022/04/17 12:35:35;;;;;;;0.00;0.00;;;19.90;49.10;;;;;;4955773;28;20422;-65
2022/04/17 12:38:10;;;;;;;0.00;0.00;;;20.20;49.60;;;;;;4955307;28;20069;-65
2022/04/17 12:40:43;;;;;;;0.00;0.00;;;19.60;47.70;;;;;;4955550;28;20036;-65
2022/04/17 12:43:18;;;;;;;0.00;0.00;;;20.00;50.60;;;;;;4954232;29;20027;-62
2022/04/17 12:46:00;;;;;;;0.05;0.05;;;19.90;50.50;;;;;;4955682;28;20085;-62
2022/04/17 12:48:30;;;;;;;0.13;0.13;;;20.20;50.10;;;;;;4955255;28;20098;-62
2022/04/17 12:51:02;;;;;;;0.17;0.10;;;20.60;51.70;;;;;;4954135;28;20386;-63
2022/04/17 12:53:41;;;;;;;0.20;0.20;;;20.30;48.70;;;;;;4951368;29;20050;-63
2022/04/17 12:56:10;;;;;;;0.25;0.22;;;21.20;48.60;;;;;;4954056;29;20124;-64
2022/04/17 12:58:56;;;;;;;0.00;0.00;;;21.10;47.90;;;;;;4969827;28;20027;-63
2022/04/17 13:01:28;;;;;;;0.10;0.10;;;22.30;47.20;;;;;;4955503;28;20027;-64
2022/04/17 13:04:20;;;;;;;0.00;0.00;;;22.90;45.50;;;;;;4969595;28;20046;-65
2022/04/17 13:07:13;;;;;;;0.00;0.00;;;23.70;41.80;;;;;;4955153;28;20449;-63
2022/04/17 13:09:58;;;;;;;0.05;0.00;;;21.10;44.40;;;;;;4979958;23;20141;-65
2022/04/17 13:12:44;;;;;;;0.10;0.10;;;21.70;46.00;;;;;;4985090;28;20125;-67
2022/04/17 13:15:15;;;;;;;0.00;0.00;;;22.00;41.60;;;;;;4993718;28;20124;-70